createdAt,value
2023-02-13T00:00:18.435Z,7.34
2023-02-13T00:05:09.143Z,7.35
2023-02-13T00:09:59.642Z,7.32
2023-02-13T00:14:52.906Z,7.38
2023-02-13T00:19:47.325Z,7.39
2023-02-13T00:24:38.514Z,7.38
2023-02-13T00:29:29.214Z,7.37
2023-02-13T00:34:22.375Z,7.30
2023-02-13T00:39:14.810Z,7.33
2023-02-13T00:44:07.893Z,7.32
2023-02-13T00:48:58.651Z,7.33
2023-02-13T00:53:51.926Z,7.32
2023-02-13T00:58:42.346Z,7.25
2023-02-13T01:03:33.259Z,7.38
2023-02-13T01:08:28.955Z,7.36
2023-02-13T01:13:24.815Z,7.38
2023-02-13T01:18:18.244Z,7.35
2023-02-13T01:23:08.899Z,7.33
2023-02-13T01:27:59.588Z,7.31
2023-02-13T01:32:55.139Z,7.34
2023-02-13T01:37:48.153Z,7.29
2023-02-13T01:42:40.487Z,7.33
2023-02-13T01:47:32.196Z,7.32
2023-02-13T01:52:26.370Z,7.09
2023-02-13T01:57:22.214Z,7.01
2023-02-13T02:02:14.635Z,7.06
2023-02-13T02:07:10.259Z,7.09
2023-02-13T02:12:10.788Z,6.98
2023-02-13T02:17:05.944Z,6.11
2023-02-13T02:22:22.592Z,6.27
2023-02-13T02:28:04.666Z,7.00
2023-02-13T02:33:10.979Z,7.01
2023-02-13T02:38:25.073Z,7.17
2023-02-13T02:43:33.199Z,6.98
2023-02-13T02:48:49.419Z,7.10
2023-02-13T02:53:55.502Z,7.08
2023-02-13T02:59:05.880Z,7.12
2023-02-13T03:04:15.965Z,7.11
2023-02-13T03:09:24.929Z,7.11
2023-02-13T03:14:21.101Z,7.09
2023-02-13T03:19:40.245Z,7.17
2023-02-13T03:24:39.086Z,7.06
2023-02-13T03:29:55.596Z,7.04
2023-02-13T03:35:10.601Z,7.01
2023-02-13T03:40:06.999Z,7.07
2023-02-13T03:45:15.673Z,7.08
2023-02-13T03:50:17.606Z,7.01
2023-02-13T03:55:25.815Z,6.99
2023-02-13T04:00:19.873Z,7.00
2023-02-13T04:05:22.670Z,7.00
2023-02-13T04:10:37.086Z,7.06
2023-02-13T04:15:45.293Z,7.03
2023-02-13T04:20:38.786Z,7.11
2023-02-13T04:25:30.988Z,7.04
2023-02-13T04:30:24.673Z,6.97
2023-02-13T04:35:16.949Z,6.94
2023-02-13T04:40:17.564Z,7.01
2023-02-13T04:45:09.604Z,6.96
2023-02-13T04:50:13.968Z,6.90
2023-02-13T04:55:10.477Z,6.80
2023-02-13T05:00:10.535Z,6.84
2023-02-13T05:05:06.257Z,6.85
2023-02-13T05:10:01.416Z,6.84
2023-02-13T05:14:56.264Z,6.88
2023-02-13T05:19:49.919Z,6.87
2023-02-13T05:24:41.341Z,6.81
2023-02-13T05:29:33.880Z,6.79
2023-02-13T05:34:26.260Z,6.77
2023-02-13T05:39:20.797Z,6.98
2023-02-13T05:44:20.307Z,6.97
2023-02-13T05:49:13.049Z,6.58
2023-02-13T05:54:10.602Z,6.38
2023-02-13T05:59:08.549Z,6.28
2023-02-13T06:04:09.235Z,6.23
2023-02-13T06:09:15.087Z,6.11
2023-02-13T06:14:10.889Z,6.00
2023-02-13T06:19:03.379Z,6.22
2023-02-13T06:23:57.351Z,6.13
2023-02-13T06:28:49.741Z,5.95
2023-02-13T06:33:46.431Z,5.86
2023-02-13T06:38:37.268Z,5.76
2023-02-13T06:43:27.957Z,5.65
2023-02-13T06:48:18.523Z,5.65
2023-02-13T06:53:12.157Z,5.55
2023-02-13T06:58:02.414Z,5.57
2023-02-13T07:02:56.752Z,5.50
2023-02-13T07:07:47.267Z,5.36
2023-02-13T07:12:44.625Z,5.34
2023-02-13T07:17:46.567Z,5.29
2023-02-13T07:22:49.341Z,5.21
2023-02-13T07:27:43.838Z,5.13
2023-02-13T07:32:35.409Z,5.11
2023-02-13T07:37:27.449Z,5.08
2023-02-13T07:42:17.687Z,5.08
2023-02-13T07:47:10.352Z,5.09
2023-02-13T07:52:05.098Z,5.07
2023-02-13T07:57:01.344Z,5.09
2023-02-13T08:01:54.764Z,5.18
2023-02-13T08:06:49.148Z,5.24
2023-02-13T08:11:54.054Z,5.23
2023-02-13T08:16:45.577Z,5.29
2023-02-13T08:21:44.359Z,5.24
2023-02-13T08:26:43.195Z,5.33
2023-02-13T08:31:41.278Z,5.41
2023-02-13T08:36:32.305Z,5.51
2023-02-13T08:41:26.811Z,5.61
2023-02-13T08:46:22.471Z,5.71
2023-02-13T08:51:28.343Z,5.85
2023-02-13T08:56:22.139Z,5.92
2023-02-13T09:01:13.486Z,5.95
2023-02-13T09:06:10.230Z,5.96
2023-02-13T09:11:02.445Z,6.00
2023-02-13T09:15:53.634Z,6.14
2023-02-13T09:20:47.129Z,6.29
2023-02-13T09:25:43.431Z,6.36
2023-02-13T09:30:47.522Z,6.49
2023-02-13T09:35:43.266Z,6.50
2023-02-13T09:40:41.041Z,6.62
2023-02-13T09:45:33.607Z,6.83
2023-02-13T09:50:28.070Z,7.62
2023-02-13T09:55:22.325Z,8.45
2023-02-13T10:00:27.803Z,9.32
2023-02-13T10:05:28.493Z,9.58
2023-02-13T10:10:28.683Z,9.99
2023-02-13T10:15:24.450Z,10.39
2023-02-13T10:20:29.084Z,10.92
2023-02-13T10:25:25.118Z,11.27
2023-02-13T10:30:24.375Z,11.68
2023-02-13T10:35:24.148Z,12.34
2023-02-13T10:40:18.018Z,12.48
2023-02-13T10:45:37.422Z,12.40
2023-02-13T10:50:40.048Z,12.23
2023-02-13T10:55:51.383Z,11.99
2023-02-13T11:00:52.583Z,11.75
2023-02-13T11:05:44.148Z,11.67
2023-02-13T11:10:42.143Z,11.78
2023-02-13T11:15:37.548Z,12.10
2023-02-13T11:20:42.277Z,12.33
2023-02-13T11:25:34.953Z,12.33
2023-02-13T11:30:37.992Z,12.68
2023-02-13T11:35:33.970Z,12.43
2023-02-13T11:40:35.963Z,12.41
2023-02-13T11:45:29.161Z,12.18
2023-02-13T11:50:32.935Z,12.34
2023-02-13T11:55:39.816Z,12.38
2023-02-13T12:00:40.555Z,12.18
2023-02-13T12:05:33.701Z,12.12
2023-02-13T12:10:28.328Z,12.18
2023-02-13T12:15:30.260Z,12.26
2023-02-13T12:20:24.812Z,12.38
2023-02-13T12:25:42.267Z,12.52
2023-02-13T12:31:06.610Z,12.53
2023-02-13T12:36:07.164Z,12.51
2023-02-13T12:41:24.070Z,11.76
2023-02-13T12:46:27.051Z,12.21
2023-02-13T12:51:39.828Z,12.17
2023-02-13T12:57:02.189Z,12.15
2023-02-13T13:02:13.158Z,12.06
2023-02-13T13:07:26.917Z,11.92
2023-02-13T13:12:33.677Z,11.56
2023-02-13T13:17:44.422Z,12.08
2023-02-13T13:22:43.466Z,12.52
2023-02-13T13:27:40.530Z,12.91
2023-02-13T13:32:38.474Z,13.18
2023-02-13T13:37:37.084Z,13.02
2023-02-13T13:42:42.992Z,12.79
2023-02-13T13:47:51.033Z,12.67
2023-02-13T13:52:47.218Z,12.43
2023-02-13T13:58:06.684Z,12.17
2023-02-13T14:03:38.574Z,12.15
2023-02-13T14:09:05.846Z,11.98
2023-02-13T14:14:01.700Z,12.04
2023-02-13T14:18:54.915Z,12.00
2023-02-13T14:23:54.219Z,11.98
2023-02-13T14:29:04.861Z,12.03
2023-02-13T14:34:05.914Z,12.16
2023-02-13T14:39:02.496Z,12.21
2023-02-13T14:43:59.347Z,12.21
2023-02-13T14:49:03.481Z,12.20
2023-02-13T14:54:03.815Z,12.19
2023-02-13T14:59:00.215Z,12.13
2023-02-13T15:04:05.767Z,12.13
2023-02-13T15:09:10.965Z,12.10
2023-02-13T15:14:20.973Z,12.06
2023-02-13T15:19:20.169Z,12.03
2023-02-13T15:24:23.309Z,11.99
2023-02-13T15:29:29.376Z,11.95
2023-02-13T15:34:26.791Z,11.91
2023-02-13T15:39:25.981Z,11.84
2023-02-13T15:44:30.653Z,11.81
2023-02-13T15:49:29.811Z,11.71
2023-02-13T15:54:33.196Z,11.58
2023-02-13T15:59:25.801Z,11.66
2023-02-13T16:04:36.426Z,11.53
2023-02-13T16:09:37.196Z,11.43
2023-02-13T16:14:40.906Z,11.34
2023-02-13T16:19:58.968Z,11.21
2023-02-13T16:24:58.217Z,11.00
2023-02-13T16:30:05.951Z,10.96
2023-02-13T16:35:03.692Z,10.88
2023-02-13T16:40:38.672Z,10.78
2023-02-13T16:45:36.090Z,10.54
2023-02-13T16:50:27.776Z,10.30
2023-02-13T16:55:27.095Z,10.98
2023-02-13T17:00:28.082Z,11.19
2023-02-13T17:05:22.244Z,11.12
2023-02-13T17:10:33.649Z,11.03
2023-02-13T17:15:29.876Z,10.90
2023-02-13T17:20:28.055Z,10.77
2023-02-13T17:25:30.470Z,10.50
2023-02-13T17:30:33.291Z,10.40
2023-02-13T17:35:24.249Z,10.31
2023-02-13T17:40:22.267Z,10.22
2023-02-13T17:45:20.155Z,10.05
2023-02-13T17:50:15.516Z,9.88
2023-02-13T17:55:17.898Z,9.72
2023-02-13T18:00:16.587Z,9.66
2023-02-13T18:05:13.797Z,9.59
2023-02-13T18:10:08.447Z,9.48
2023-02-13T18:15:01.070Z,9.40
2023-02-13T18:19:51.118Z,9.29
2023-02-13T18:24:46.243Z,9.17
2023-02-13T18:29:40.920Z,9.09
2023-02-13T18:34:41.214Z,8.95
2023-02-13T18:39:38.100Z,8.86
2023-02-13T18:44:31.189Z,8.83
2023-02-13T18:49:25.187Z,8.79
2023-02-13T18:54:24.700Z,8.74
2023-02-13T18:59:15.872Z,8.62
2023-02-13T19:04:05.913Z,8.51
2023-02-13T19:08:59.361Z,8.44
2023-02-13T19:13:54.940Z,8.41
2023-02-13T19:18:55.056Z,8.35
2023-02-13T19:23:48.073Z,8.27
2023-02-13T19:28:48.118Z,8.12
2023-02-13T19:33:46.854Z,8.08
2023-02-13T19:38:45.945Z,7.99
2023-02-13T19:43:36.030Z,7.89
2023-02-13T19:48:28.769Z,7.85
2023-02-13T19:53:20.131Z,7.78
2023-02-13T19:58:13.017Z,7.71
2023-02-13T20:03:04.260Z,7.70
2023-02-13T20:07:56.601Z,7.65
2023-02-13T20:12:48.507Z,7.56
2023-02-13T20:17:42.356Z,7.11
2023-02-13T20:22:39.468Z,7.06
2023-02-13T20:27:43.227Z,6.95
2023-02-13T20:32:37.704Z,6.80
2023-02-13T20:37:36.097Z,6.70
2023-02-13T20:42:35.121Z,6.67
2023-02-13T20:47:46.930Z,6.61
2023-02-13T20:52:47.105Z,6.38
2023-02-13T20:57:44.623Z,6.40
2023-02-13T21:02:56.468Z,6.29
2023-02-13T21:07:52.447Z,6.27
2023-02-13T21:12:43.889Z,6.14
2023-02-13T21:17:44.643Z,6.08
2023-02-13T21:22:35.971Z,6.04
2023-02-13T21:27:27.852Z,6.08
2023-02-13T21:32:25.881Z,5.88
2023-02-13T21:37:45.246Z,5.95
2023-02-13T21:42:38.064Z,6.13
2023-02-13T21:47:27.679Z,6.11
2023-02-13T21:52:22.484Z,6.09
2023-02-13T21:57:25.276Z,6.01
2023-02-13T22:02:16.908Z,6.02
2023-02-13T22:07:17.057Z,6.01
2023-02-13T22:12:09.334Z,6.00
2023-02-13T22:17:05.663Z,5.94
2023-02-13T22:21:56.307Z,5.80
2023-02-13T22:26:59.858Z,5.71
2023-02-13T22:31:50.074Z,5.71
2023-02-13T22:36:47.380Z,5.68
2023-02-13T22:41:55.261Z,5.69
2023-02-13T22:46:46.977Z,5.63
2023-02-13T22:51:47.113Z,5.55
2023-02-13T22:56:52.914Z,5.55
2023-02-13T23:01:44.993Z,5.58
2023-02-13T23:06:39.131Z,5.56
2023-02-13T23:11:44.673Z,5.51
2023-02-13T23:16:50.924Z,5.40
2023-02-13T23:21:41.813Z,5.41
2023-02-13T23:26:37.113Z,5.29
2023-02-13T23:31:28.607Z,5.32
2023-02-13T23:36:32.470Z,5.30
2023-02-13T23:41:24.657Z,5.31
2023-02-13T23:46:19.192Z,5.14
2023-02-13T23:51:10.407Z,5.14
2023-02-13T23:56:05.196Z,5.13
